Regional Weather

 

KMKL - Jackson, TN, USA
Distance from Parsons: WNW 50mi, 81km
Updated: Thu, 25-May-2017 10:53am CDT
Partly cloudy
Partly cloudy
 Wind from WNW
Wind: WNW 10 mph , 17 km/h, Gust: 18 mph , 30 km/h
Temperature: 70°F , 21°C
Dew Point: 52°F , 11°C
Humidity: 53%
Barometer: 29.79 inHg , 1008.8 hPa
Clouds: Partly cloudy
Visibility: 10 miles , 16 km
Cloud details: Partly cloudy 3500 ft
2017/05/25 15:53 KMKL 251553Z 29009G16KT 260V320 10SM SCT035 21/11 A2979 RMK AO2 SLP086 T02110106
KMEM - Memphis, TN, USA
Distance from Parsons: W 108mi, 173km
Updated: Thu, 25-May-2017 10:54am CDT
Few Clouds
Few Clouds
 Wind from SW
Wind: SW 12 mph , 19 km/h
Temperature: 68°F , 20°C
Dew Point: 52°F , 11°C
Humidity: 56%
Barometer: 29.82 inHg , 1009.8 hPa
Clouds: Few Clouds
Visibility: 10 miles , 16 km
Cloud details: Few Clouds 3000 ft
2017/05/25 15:54 KMEM 251554Z 23010KT 10SM FEW030 20/11 A2982 RMK AO2 SLP096 T02000106
 
KBNA - Nashville, TN, USA
Distance from Parsons: NE 97mi, 157km
Updated: Thu, 25-May-2017 10:53am CDT
Mostly cloudy
Mostly cloudy
 Wind from W
Wind: W 14 mph , 22 km/h, Gust: 28 mph , 44 km/h
Temperature: 66°F , 19°C
Dew Point: 52°F , 11°C
Humidity: 60%
Barometer: 29.73 inHg , 1006.8 hPa
Clouds: Mostly cloudy
Visibility: 10 miles , 16 km
Cloud details: Mostly cloudy 3100 ft
Mostly cloudy 13000 ft
2017/05/25 15:53 KBNA 251553Z 26012G24KT 10SM BKN031 BKN130 19/11 A2973 RMK AO2 SLP064 T01940111
KCKV - Clarksville, TN, USA
Distance from Parsons: NNE 99mi, 159km
Updated: Thu, 25-May-2017 10:52am CDT
Partly cloudy
Partly cloudy
 Wind from W
Wind: W 12 mph , 19 km/h, Gust: 25 mph , 41 km/h
Temperature: 66°F , 19°C
Dew Point: 54°F , 12°C
Humidity: 64%
Barometer: 29.72 inHg , 1006.4 hPa
Clouds: Partly cloudy
Visibility: 10 miles , 16 km
Cloud details: Partly cloudy 2900 ft
2017/05/25 15:52 KCKV 251552Z AUTO 28010G22KT 10SM SCT029 19/12 A2972 RMK AO2 SLP062 T01940122
 
KPAH - Paducah, KY, USA
Distance from Parsons: NNW 128mi, 205km
Updated: Thu, 25-May-2017 10:53am CDT
Partly cloudy
Partly cloudy
 Wind from W
Wind: W 14 mph , 22 km/h
Temperature: 70°F , 21°C
Dew Point: 52°F , 11°C
Humidity: 53%
Barometer: 29.73 inHg , 1006.8 hPa
Clouds: Partly cloudy
Visibility: 10 miles , 16 km
Cloud details: Partly cloudy 3400 ft
2017/05/25 15:53 KPAH 251553Z 27012KT 10SM SCT034 21/11 A2973 RMK AO2 SLP064 T02060106
KCHA - Chattanooga, TN, USA
Distance from Parsons: E 165mi, 265km
Updated: Thu, 25-May-2017 10:53am CDT
Mostly cloudy
Mostly cloudy
 Wind from SSW
Wind: SSW 14 mph , 22 km/h, Gust: 18 mph , 30 km/h
Temperature: 64°F , 18°C
Dew Point: 50°F , 10°C
Humidity: 60%
Barometer: 29.76 inHg , 1007.8 hPa
Clouds: Mostly cloudy
Visibility: 10 miles , 16 km
Cloud details: Partly cloudy 3200 ft
Mostly cloudy 10000 ft
2017/05/25 15:53 KCHA 251553Z 21012G16KT 10SM SCT032 BKN100 18/10 A2976 RMK AO2 SLP073 T01830100
 
KTYS - Knoxville, TN, USA
Distance from Parsons: E 234mi, 377km
Updated: Thu, 25-May-2017 10:53am CDT
Mostly cloudy
Mostly cloudy
 Wind from SW
Wind: SW 16 mph , 26 km/h
Temperature: 61°F , 16°C
Dew Point: 54°F , 12°C
Humidity: 77%
Barometer: 29.69 inHg , 1005.4 hPa
Clouds: Mostly cloudy
Visibility: 10 miles , 16 km
Cloud details: Few Clouds 2900 ft
Mostly cloudy 11000 ft
2017/05/25 15:53 KTYS 251553Z 22014KT 10SM FEW029 BKN110 16/12 A2969 RMK AO2 SLP048 T01560117
KLIT - Little Rock, AR, USA
Distance from Parsons: W 240mi, 386km
Updated: Thu, 25-May-2017 10:53am CDT
Few Clouds
Few Clouds
 Wind from S
Wind: S 10 mph , 17 km/h, Gust: 20 mph , 31 km/h
Temperature: 70°F , 21°C
Dew Point: 54°F , 12°C
Humidity: 57%
Barometer: 29.83 inHg , 1010.2 hPa
Clouds: Few Clouds
Visibility: 10 miles , 16 km
Cloud details: Few Clouds 3000 ft
2017/05/25 15:53 KLIT 251553Z 19009G17KT 10SM FEW030 21/12 A2983 RMK AO2 SLP101 T02110117